Latest Weather Observations for Mount Moornapa

IDV60801

Issued at 12:02 pm EST Friday 28 August 2015 (issued every 30 minutes, with the page automatically refreshed every 10 minutes)

About weather observations | Map of weather stations | Latest weather observations for VIC | Other Formats
Station Details ID: 085296 Name: MOUNT MOORNAPA Lat: -37.75 Lon: 147.14 Height: 480.0 m
Data from the previous 72 hours. | See also: Recent months at Mount Moornapa
Date/Time
EST
Temp
°C
App
Temp
°C
Dew
Point
Rel
Hum
%
Delta-T
°C
Wind Press
QNH
hPa
Press
MSL
hPa
Rain
since 9 am
mm
Dir
 
Spd
km/h
Gust
km/h
Spd
kts
Gust
kts
28/12:00pm 7.2 5.2 7.1 99 0.0 W 7 13 4 7 - - 0.2
28/11:30am 7.2 5.2 7.1 99 0.0 W 7 13 4 7 - - 0.2
28/11:00am 7.2 5.0 6.3 94 0.4 WSW 7 15 4 8 - - 0.2
28/10:30am 8.0 5.9 5.8 86 1.0 W 6 15 3 8 - - 0.2
28/10:00am 8.0 5.7 5.8 86 1.0 W 7 17 4 9 - - 0.2
28/09:30am 7.4 4.1 4.4 81 1.3 WSW 11 22 6 12 - - 0.0
28/09:00am 7.6 4.5 5.6 87 0.9 WSW 11 20 6 11 - - 30.6
28/08:30am 5.9 2.6 4.7 92 0.5 WSW 11 24 6 13 - - 30.6
28/08:00am 5.4 2.6 5.1 98 0.1 WSW 9 17 5 9 - - 30.6
28/07:30am 5.4 3.0 5.3 99 0.0 WSW 7 13 4 7 - - 30.6
28/07:00am 5.3 1.7 5.2 99 0.0 W 13 24 7 13 - - 30.6
28/06:30am 5.5 1.6 5.4 99 0.0 WSW 15 26 8 14 - - 30.6
28/06:00am 6.0 3.0 6.0 100 0.0 WSW 11 26 6 14 - - 30.6
28/05:30am 6.5 4.6 6.5 100 0.0 SW 6 19 3 10 - - 30.6
28/05:00am 6.6 4.1 6.6 100 0.0 SW 9 24 5 13 - - 30.6
28/04:30am 6.9 4.9 6.9 100 0.0 SW 7 24 4 13 - - 30.6
28/04:00am 6.9 4.5 6.9 100 0.0 SW 9 24 5 13 - - 30.6
28/03:30am 7.0 4.6 7.0 100 0.0 SW 9 20 5 11 - - 30.6
28/03:00am 7.0 4.6 7.0 100 0.0 SW 9 24 5 13 - - 30.6
28/02:30am 7.1 4.7 7.1 100 0.0 SW 9 26 5 14 - - 30.6
28/02:00am 7.1 5.1 7.1 100 0.0 SW 7 20 4 11 - - 30.6
28/01:30am 7.1 4.7 7.1 100 0.0 SW 9 24 5 13 - - 30.6
28/01:00am 7.2 4.8 7.2 100 0.0 SSW 9 20 5 11 - - 30.4
28/12:30am 7.3 5.0 7.3 100 0.0 SW 9 24 5 13 - - 30.4
28/12:00am 7.3 5.0 7.3 100 0.0 SSW 9 33 5 18 - - 30.0
 
Date/Time
EST
Temp
°C
App
Temp
°C
Dew
Point
Rel
Hum
%
Delta-T
°C
Wind Press
QNH
hPa
Press
MSL
hPa
Rain
since 9 am
mm
Dir
 
Spd
km/h
Gust
km/h
Spd
kts
Gust
kts
27/11:30pm 7.6 5.7 7.6 100 0.0 SSW 7 24 4 13 - - 28.8
27/11:00pm 7.7 5.8 7.7 100 0.0 S 7 26 4 14 - - 25.6
27/10:30pm 7.7 6.0 7.7 100 0.0 S 6 13 3 7 - - 22.0
27/10:00pm 7.6 6.3 7.6 100 0.0 S 4 20 2 11 - - 18.2
27/09:30pm 7.5 6.2 7.5 100 0.0 S 4 9 2 5 - - 15.6
27/09:00pm 7.4 5.7 7.4 100 0.0 SSW 6 9 3 5 - - 13.6
27/08:30pm 7.3 5.5 7.3 100 0.0 SSW 6 13 3 7 - - 11.8
27/08:00pm 7.2 4.4 7.1 99 0.0 WSW 11 24 6 13 - - 10.8
27/07:30pm 6.8 3.9 6.7 99 0.0 W 11 22 6 12 - - 9.8
27/07:00pm 6.7 4.2 6.6 99 0.0 W 9 17 5 9 - - 9.2
27/06:30pm 6.8 4.3 6.7 99 0.0 WSW 9 19 5 10 - - 9.2
27/06:00pm 7.0 4.6 6.9 99 0.0 WSW 9 17 5 9 - - 8.4
27/05:30pm 7.5 6.5 7.4 99 0.0 SW 2 7 1 4 - - 8.4
27/05:00pm 7.4 5.4 7.1 98 0.1 W 7 15 4 8 - - 8.4
27/04:30pm 7.4 4.7 7.3 99 0.0 W 11 20 6 11 - - 8.4
27/04:00pm 7.3 4.6 7.2 99 0.0 W 11 17 6 9 - - 8.4
27/03:30pm 7.8 5.6 7.8 100 0.0 W 9 17 5 9 - - 8.4
27/03:00pm 7.7 6.0 7.7 100 0.0 WSW 6 13 3 7 - - 8.4
27/02:30pm 7.7 5.8 7.7 100 0.0 W 7 17 4 9 - - 8.4
27/02:00pm 8.6 7.5 8.6 100 0.0 WSW 4 7 2 4 - - 8.4
27/01:30pm 8.2 6.6 8.2 100 0.0 SSE 6 9 3 5 - - 8.2
27/01:00pm 8.1 6.5 8.1 100 0.0 WSW 6 13 3 7 - - 8.2
27/12:30pm 8.6 7.5 8.6 100 0.0 WSW 4 11 2 6 - - 8.0
27/12:00pm 8.4 7.3 8.4 100 0.0 WNW 4 7 2 4 - - 7.8
27/11:30am 8.2 6.6 8.2 100 0.0 NW 6 9 3 5 - - 6.4
27/11:00am 8.2 7.0 8.2 100 0.0 W 4 7 2 4 - - 4.2
27/10:30am 8.1 6.5 8.1 100 0.0 W 6 13 3 7 - - 3.6
27/10:00am 8.3 7.2 8.3 100 0.0 NW 4 6 2 3 - - 2.0
27/09:30am 8.2 7.4 8.2 100 0.0 SW 2 6 1 3 - - 1.0
27/09:00am 8.1 6.9 8.1 100 0.0 SW 4 7 2 4 - - 2.0
27/08:30am 8.2 7.4 8.2 100 0.0 WSW 2 6 1 3 - - 1.6
27/08:00am 7.8 6.9 7.8 100 0.0 WSW 2 6 1 3 - - 1.6
27/07:30am 7.7 6.0 7.7 100 0.0 SW 6 7 3 4 - - 1.6
27/07:00am 7.5 6.2 7.5 100 0.0 SSW 4 6 2 3 - - 1.4
27/06:30am 7.6 6.3 7.6 100 0.0 SW 4 6 2 3 - - 1.2
27/06:00am 7.7 6.4 7.7 100 0.0 W 4 6 2 3 - - 1.2
27/05:30am 7.5 6.2 7.5 100 0.0 NW 4 6 2 3 - - 1.2
27/05:00am 7.2 5.8 7.1 99 0.0 NW 4 4 2 2 - - 1.2
27/04:30am 7.6 6.3 7.6 100 0.0 SW 4 6 2 3 - - 1.2
27/04:00am 7.5 6.9 7.4 99 0.0 CALM 0 0 0 0 - - 1.2
27/03:30am 7.7 7.2 7.7 100 0.0 CALM 0 0 0 0 - - 1.2
27/03:00am 7.8 7.3 7.7 99 0.0 CALM 0 0 0 0 - - 1.2
27/02:30am 7.8 7.3 7.7 99 0.0 CALM 0 0 0 0 - - 1.2
27/02:00am 7.5 6.9 7.4 99 0.0 CALM 0 0 0 0 - - 1.2
27/01:30am 8.0 7.5 7.9 99 0.0 CALM 0 0 0 0 - - 1.2
27/01:00am 7.8 7.3 7.7 99 0.0 CALM 0 0 0 0 - - 1.2
27/12:30am 7.9 7.4 7.8 99 0.0 CALM 0 0 0 0 - - 1.2
27/12:00am 8.1 7.6 8.0 99 0.0 CALM 0 0 0 0 - - 1.2
 
Date/Time
EST
Temp
°C
App
Temp
°C
Dew
Point
Rel
Hum
%
Delta-T
°C
Wind Press
QNH
hPa
Press
MSL
hPa
Rain
since 9 am
mm
Dir
 
Spd
km/h
Gust
km/h
Spd
kts
Gust
kts
26/11:30pm 8.3 7.9 8.3 100 0.0 CALM 0 4 0 2 - - 1.0
26/11:00pm 8.2 7.0 8.1 99 0.0 N 4 7 2 4 - - 1.0
26/10:30pm 8.2 7.0 8.1 99 0.0 NE 4 9 2 5 - - 1.0
26/10:00pm 8.2 7.0 8.1 99 0.0 NNE 4 7 2 4 - - 1.0
26/09:30pm 8.4 6.9 8.3 99 0.0 NE 6 17 3 9 - - 1.0
26/09:00pm 8.4 6.9 8.3 99 0.0 ENE 6 13 3 7 - - 1.0
26/08:30pm 8.3 6.2 8.2 99 0.0 ENE 9 17 5 9 - - 1.0
26/08:00pm 8.3 6.6 8.2 99 0.0 ENE 7 24 4 13 - - 1.0
26/07:30pm 8.3 6.6 8.2 99 0.0 ENE 7 13 4 7 - - 1.0
26/07:00pm 8.3 6.6 8.2 99 0.0 E 7 11 4 6 - - 1.0
26/06:30pm 8.3 6.7 8.2 99 0.0 E 6 13 3 7 - - 0.8
26/06:00pm 8.3 6.6 8.2 99 0.0 E 7 15 4 8 - - 0.6
26/05:30pm 8.5 6.8 8.4 99 0.0 ESE 7 11 4 6 - - 0.2
26/05:00pm 8.8 7.3 8.4 97 0.2 ESE 6 11 3 6 - - 0.0
26/04:30pm 9.3 7.8 8.5 95 0.4 ESE 6 13 3 7 - - 0.0
26/04:00pm 9.8 8.2 8.6 92 0.6 E 7 15 4 8 - - 0.0
26/03:30pm 10.0 8.5 8.6 91 0.7 ESE 6 15 3 8 - - 0.0
26/03:00pm 10.0 8.5 8.4 90 0.8 ESE 6 13 3 7 - - 0.0
26/02:30pm 10.3 8.7 8.1 86 1.1 ESE 6 13 3 7 - - 0.0
26/02:00pm 10.7 9.1 8.1 84 1.3 ESE 6 13 3 7 - - 0.0
26/01:30pm 11.0 9.4 7.9 81 1.5 ESE 6 19 3 10 - - 0.0
26/01:00pm 10.5 8.8 7.7 83 1.4 ESE 6 15 3 8 - - 0.0
26/12:30pm 10.5 9.2 7.6 82 1.4 E 4 9 2 5 - - 0.0
26/12:00pm 11.2 10.1 8.4 83 1.4 E 4 7 2 4 - - 0.0
26/11:30am 11.3 9.4 7.4 77 1.9 E 7 17 4 9 - - 0.0
26/11:00am 10.7 9.1 7.9 83 1.4 E 6 17 3 9 - - 0.0
26/10:30am 9.4 7.6 7.2 86 1.1 ENE 6 13 3 7 - - 0.0
26/10:00am 8.9 7.0 6.9 87 1.0 ENE 6 13 3 7 - - 0.0
26/09:30am 8.4 6.6 7.2 92 0.6 NE 6 15 3 8 - - 0.0
26/09:00am 8.1 6.8 7.5 96 0.3 ENE 4 9 2 5 - - 5.8
26/08:30am 7.4 6.0 7.1 98 0.1 E 4 15 2 8 - - 5.8
26/08:00am 6.8 4.9 6.7 99 0.0 E 6 13 3 7 - - 5.6
26/07:30am 6.4 4.2 6.3 99 0.0 E 7 13 4 7 - - 5.6
26/07:00am 6.4 4.2 6.3 99 0.0 ENE 7 13 4 7 - - 5.6
26/06:30am 6.3 4.1 6.2 99 0.0 E 7 15 4 8 - - 5.6
26/06:00am 6.5 4.3 6.4 99 0.0 E 7 13 4 7 - - 5.6
26/05:30am 6.4 4.2 6.3 99 0.0 ENE 7 13 4 7 - - 5.6
26/05:00am 6.2 4.2 6.1 99 0.0 E 6 9 3 5 - - 5.6
26/04:30am 6.4 4.4 6.3 99 0.0 ENE 6 15 3 8 - - 5.6
26/04:00am 6.4 4.4 6.3 99 0.0 E 6 13 3 7 - - 5.6
26/03:30am 6.5 4.3 6.4 99 0.0 ENE 7 17 4 9 - - 5.6
26/03:00am 6.8 4.9 6.7 99 0.0 ENE 6 17 3 9 - - 5.2
26/02:30am 6.7 4.8 6.6 99 0.0 E 6 13 3 7 - - 5.0
26/02:00am 6.6 4.7 6.5 99 0.0 E 6 19 3 10 - - 5.0
26/01:30am 6.6 4.7 6.5 99 0.0 ESE 6 15 3 8 - - 5.0
26/01:00am 6.6 5.0 6.5 99 0.0 ENE 4 11 2 6 - - 4.8
26/12:30am 6.8 4.8 6.2 96 0.3 E 6 13 3 7 - - 4.6
26/12:00am 6.8 4.6 6.2 96 0.3 E 7 15 4 8 - - 4.6
 
Date/Time
EST
Temp
°C
App
Temp
°C
Dew
Point
Rel
Hum
%
Delta-T
°C
Wind Press
QNH
hPa
Press
MSL
hPa
Rain
since 9 am
mm
Dir
 
Spd
km/h
Gust
km/h
Spd
kts
Gust
kts
25/11:30pm 7.0 4.9 5.9 93 0.5 E 6 17 3 9 - - 4.6
25/11:00pm 7.1 5.4 5.9 92 0.6 E 4 11 2 6 - - 4.6
25/10:30pm 6.8 4.8 6.1 95 0.3 E 6 13 3 7 - - 4.6
25/10:00pm 6.9 4.7 6.2 95 0.3 E 7 20 4 11 - - 4.6
25/09:30pm 7.0 4.7 5.9 93 0.5 ESE 7 22 4 12 - - 4.6
25/09:00pm 6.8 4.5 5.9 94 0.4 ESE 7 17 4 9 - - 4.6
25/08:30pm 6.8 4.5 5.9 94 0.4 ESE 7 13 4 7 - - 4.6
25/08:00pm 6.5 4.4 5.8 95 0.3 ESE 6 13 3 7 - - 4.6
25/07:30pm 6.8 4.8 6.1 95 0.3 ESE 6 13 3 7 - - 4.6
25/07:00pm 6.7 4.7 6.1 96 0.3 ESE 6 15 3 8 - - 4.6
25/06:30pm 6.9 5.0 6.5 97 0.2 ESE 6 15 3 8 - - 4.6
25/06:00pm 6.9 5.0 6.5 97 0.2 ESE 6 15 3 8 - - 4.6
25/05:30pm 7.1 5.0 6.5 96 0.3 ESE 7 15 4 8 - - 4.6
25/05:00pm 7.5 5.6 6.9 96 0.3 ESE 6 13 3 7 - - 4.6
25/04:30pm 7.9 6.8 7.1 95 0.4 ESE 2 11 1 6 - - 4.6
25/04:00pm 7.8 5.9 6.9 94 0.4 ESE 6 15 3 8 - - 4.6
25/03:30pm 8.1 6.1 7.3 95 0.4 ESE 7 19 4 10 - - 4.6
25/03:00pm 8.2 6.4 7.9 98 0.1 SE 7 15 4 8 - - 4.6
25/02:30pm 8.4 6.9 8.3 99 0.0 SE 6 15 3 8 - - 4.6
25/02:00pm 8.2 6.6 8.2 100 0.0 SE 6 13 3 7 - - 4.6
25/01:30pm 8.2 6.6 8.2 100 0.0 ESE 6 13 3 7 - - 4.6
25/01:00pm 8.3 7.2 8.3 100 0.0 SE 4 11 2 6 - - 4.6
25/12:30pm 8.0 6.2 8.0 100 0.0 SE 7 17 4 9 - - 4.6

Other Formats:

Comma delimited format used in spreadsheet applications
http://www.bom.gov.au/fwo/IDV60801/IDV60801.95913.axf

JavaScript Object Notation format (JSON) in row-major order
http://www.bom.gov.au/fwo/IDV60801/IDV60801.95913.json